createdAt,value
2019-05-03T00:01:52.729Z,99454.70
2019-05-03T00:04:44.596Z,99458.80
2019-05-03T00:07:35.099Z,99472.11
2019-05-03T00:10:24.833Z,99471.86
2019-05-03T00:13:14.841Z,99466.95
2019-05-03T00:16:12.214Z,99464.78
2019-05-03T00:19:03.372Z,99467.80
2019-05-03T00:21:53.438Z,99485.19
2019-05-03T00:24:43.396Z,99489.56
2019-05-03T00:27:33.172Z,99487.39
2019-05-03T00:30:23.192Z,99489.57
2019-05-03T00:33:13.141Z,99490.14
2019-05-03T00:36:25.530Z,99496.66
2019-05-03T00:39:38.300Z,99499.13
2019-05-03T00:42:28.400Z,99498.30
2019-05-03T00:45:18.829Z,99499.13
2019-05-03T00:48:08.653Z,99500.20
2019-05-03T00:50:58.607Z,99502.93
2019-05-03T00:53:48.744Z,99507.27
2019-05-03T00:56:38.573Z,99508.37
2019-05-03T00:59:28.471Z,99504.01
2019-05-03T01:02:19.384Z,99509.19
2019-05-03T01:05:11.813Z,99506.19
2019-05-03T01:08:02.102Z,99512.45
2019-05-03T01:10:51.993Z,99511.65
2019-05-03T01:13:42.414Z,99511.11
2019-05-03T01:16:32.574Z,99514.91
2019-05-03T01:19:22.865Z,99518.97
2019-05-03T01:22:13.881Z,99523.87
2019-05-03T01:25:05.338Z,99533.66
2019-05-03T01:27:55.488Z,99534.20
2019-05-03T01:30:46.171Z,99529.58
2019-05-03T01:33:36.121Z,99534.73
2019-05-03T01:36:26.658Z,99530.34
2019-05-03T01:39:16.553Z,99532.48
2019-05-03T01:42:06.849Z,99532.98
2019-05-03T01:44:57.066Z,99526.41
2019-05-03T01:48:05.742Z,99527.17
2019-05-03T01:51:12.596Z,99536.02
2019-05-03T01:54:02.097Z,99531.34
2019-05-03T01:56:58.817Z,99543.69
2019-05-03T01:59:45.379Z,99549.27
2019-05-03T02:02:53.301Z,99551.91
2019-05-03T02:05:44.767Z,99557.23
2019-05-03T02:08:34.671Z,99561.45
2019-05-03T02:11:25.280Z,99558.12
2019-05-03T02:14:15.234Z,99562.92
2019-05-03T02:17:05.351Z,99561.20
2019-05-03T02:19:55.319Z,99564.35
2019-05-03T02:22:45.378Z,99572.94
2019-05-03T02:25:35.745Z,99572.91
2019-05-03T02:28:27.163Z,99573.91
2019-05-03T02:31:17.372Z,99574.94
2019-05-03T02:34:07.229Z,99580.02
2019-05-03T02:36:58.532Z,99581.60
2019-05-03T02:39:55.957Z,99580.22
2019-05-03T02:43:06.311Z,99581.50
2019-05-03T02:46:09.857Z,99586.34
2019-05-03T02:49:06.553Z,99590.08
2019-05-03T02:51:56.847Z,99594.55
2019-05-03T02:54:46.891Z,99598.83
2019-05-03T02:57:37.122Z,99599.84
2019-05-03T03:00:58.277Z,99601.95
2019-05-03T03:03:48.552Z,99606.49
2019-05-03T03:06:42.097Z,99613.88
2019-05-03T03:09:32.113Z,99603.25
2019-05-03T03:12:25.747Z,99603.95
2019-05-03T03:15:17.183Z,99609.55
2019-05-03T03:18:09.998Z,99605.67
2019-05-03T03:21:01.665Z,99612.37
2019-05-03T03:24:08.129Z,99611.81
2019-05-03T03:27:01.643Z,99608.50
2019-05-03T03:30:02.147Z,99607.11
2019-05-03T03:32:51.617Z,99602.75
2019-05-03T03:35:48.398Z,99608.94
2019-05-03T03:38:36.004Z,99615.70
2019-05-03T03:41:27.204Z,99616.56
2019-05-03T03:44:20.220Z,99625.19
2019-05-03T03:47:16.551Z,99621.44
2019-05-03T03:50:06.895Z,99625.77
2019-05-03T03:53:00.825Z,99635.16
2019-05-03T03:55:52.601Z,99639.73
2019-05-03T03:58:46.176Z,99638.86
2019-05-03T04:01:35.153Z,99642.60
2019-05-03T04:04:26.237Z,99646.88
2019-05-03T04:07:16.708Z,99653.62
2019-05-03T04:10:09.786Z,99658.81
2019-05-03T04:13:00.458Z,99663.13
2019-05-03T04:15:57.949Z,99663.95
2019-05-03T04:18:56.774Z,99669.62
2019-05-03T04:21:47.043Z,99672.63
2019-05-03T04:24:37.314Z,99677.45
2019-05-03T04:27:29.082Z,99680.73
2019-05-03T04:30:19.265Z,99692.10
2019-05-03T04:33:08.938Z,99691.02
2019-05-03T04:35:58.991Z,99697.28
2019-05-03T04:38:49.067Z,99706.48
2019-05-03T04:41:39.394Z,99708.11
2019-05-03T04:44:29.644Z,99715.11
2019-05-03T04:47:19.754Z,99728.30
2019-05-03T04:50:10.350Z,99734.66
2019-05-03T04:53:00.583Z,99735.11
2019-05-03T04:55:50.172Z,99737.23
2019-05-03T04:58:40.195Z,99748.83
2019-05-03T05:01:30.038Z,99757.33
2019-05-03T05:04:20.018Z,99751.26
2019-05-03T05:07:10.164Z,99763.50
2019-05-03T05:10:00.219Z,99770.71
2019-05-03T05:12:50.222Z,99770.19
2019-05-03T05:15:40.211Z,99776.36
2019-05-03T05:18:35.670Z,99783.94
2019-05-03T05:21:29.661Z,99784.46
2019-05-03T05:24:19.827Z,99774.95
2019-05-03T05:27:16.020Z,99780.16
2019-05-03T05:30:08.633Z,99788.04
2019-05-03T05:32:59.333Z,99783.94
2019-05-03T05:35:50.155Z,99787.22
2019-05-03T05:38:40.281Z,99797.76
2019-05-03T05:41:30.335Z,99798.53
2019-05-03T05:44:20.111Z,99802.83
2019-05-03T05:47:28.136Z,99807.62
2019-05-03T05:50:22.819Z,99804.18
2019-05-03T05:53:12.552Z,99806.38
2019-05-03T05:56:24.952Z,99807.27
2019-05-03T05:59:36.847Z,99810.91
2019-05-03T06:02:26.074Z,99815.69
2019-05-03T06:05:15.771Z,99814.65
2019-05-03T06:08:31.057Z,99812.00
2019-05-03T06:11:38.741Z,99817.45
2019-05-03T06:14:34.656Z,99830.90
2019-05-03T06:17:34.959Z,99831.09
2019-05-03T06:20:35.161Z,99831.87
2019-05-03T06:23:32.322Z,99845.11
2019-05-03T06:26:39.740Z,99839.20
2019-05-03T06:29:29.406Z,99844.15
2019-05-03T06:32:27.233Z,99848.83
2019-05-03T06:35:17.057Z,99838.14
2019-05-03T06:38:07.025Z,99844.42
2019-05-03T06:40:57.059Z,99846.63
2019-05-03T06:43:48.773Z,99844.53
2019-05-03T06:46:46.141Z,99851.03
2019-05-03T06:49:39.242Z,99844.55
2019-05-03T06:52:29.440Z,99855.86
2019-05-03T06:55:19.383Z,99860.23
2019-05-03T06:58:08.928Z,99848.97
2019-05-03T07:01:20.615Z,99860.15
2019-05-03T07:04:18.393Z,99849.65
2019-05-03T07:07:28.150Z,99854.80
2019-05-03T07:10:40.191Z,99858.28
2019-05-03T07:13:30.228Z,99858.28
2019-05-03T07:16:20.048Z,99854.85
2019-05-03T07:19:09.926Z,99864.94
2019-05-03T07:22:00.014Z,99863.74
2019-05-03T07:24:49.828Z,99939.59
2019-05-03T07:27:39.632Z,99861.59
2019-05-03T07:30:29.472Z,99862.07
2019-05-03T07:33:28.128Z,99871.17
2019-05-03T07:36:18.354Z,99861.59
2019-05-03T07:39:09.360Z,99868.55
2019-05-03T07:41:59.486Z,99869.98
2019-05-03T07:44:49.355Z,99875.92
2019-05-03T07:47:39.320Z,99875.09
2019-05-03T07:50:29.268Z,99990.50
2019-05-03T07:53:20.577Z,99878.44
2019-05-03T07:56:15.560Z,99877.75
2019-05-03T07:59:06.986Z,99882.61
2019-05-03T08:01:58.607Z,99888.84
2019-05-03T08:04:48.370Z,99886.39
2019-05-03T08:07:38.240Z,99882.38
2019-05-03T08:10:27.810Z,99884.01
2019-05-03T08:13:17.616Z,99884.84
2019-05-03T08:16:07.603Z,99881.86
2019-05-03T08:18:57.721Z,99884.52
2019-05-03T08:21:47.987Z,99884.52
2019-05-03T08:24:37.753Z,99880.25
2019-05-03T08:27:27.346Z,99881.49
2019-05-03T08:30:22.657Z,99882.52
2019-05-03T08:33:24.965Z,99883.75
2019-05-03T08:36:15.689Z,99881.44
2019-05-03T08:39:06.659Z,99883.98
2019-05-03T08:41:59.316Z,99878.87
2019-05-03T08:44:49.498Z,99878.35
2019-05-03T08:47:39.441Z,99885.90
2019-05-03T08:50:29.822Z,99882.37
2019-05-03T08:53:20.078Z,99889.09
2019-05-03T08:56:09.757Z,99882.84
2019-05-03T08:58:59.575Z,99883.32
2019-05-03T09:01:49.736Z,99881.14
2019-05-03T09:04:43.062Z,99881.48
2019-05-03T09:07:31.497Z,99875.30
2019-05-03T09:10:29.689Z,99877.53
2019-05-03T09:13:20.567Z,99878.22
2019-05-03T09:16:10.363Z,99886.25
2019-05-03T09:19:00.307Z,99877.95
2019-05-03T09:21:50.241Z,99881.34
2019-05-03T09:24:40.291Z,99881.99
2019-05-03T09:27:30.235Z,99880.15
2019-05-03T09:30:20.925Z,99877.48
2019-05-03T09:33:10.957Z,99880.56
2019-05-03T09:36:00.508Z,99883.58
2019-05-03T09:38:50.333Z,99885.83
2019-05-03T09:41:40.287Z,99880.67
2019-05-03T09:44:30.055Z,99879.36
2019-05-03T09:47:19.721Z,99877.59
2019-05-03T09:50:09.479Z,99874.98
2019-05-03T09:52:59.630Z,99873.47
2019-05-03T09:55:49.352Z,99879.25
2019-05-03T09:58:39.045Z,99875.05
2019-05-03T10:01:29.437Z,99868.98
2019-05-03T10:04:19.147Z,99866.20
2019-05-03T10:07:09.017Z,99867.19
2019-05-03T10:09:59.530Z,99865.81
2019-05-03T10:12:49.354Z,99862.20
2019-05-03T10:15:41.385Z,99859.39
2019-05-03T10:18:32.221Z,99858.98
2019-05-03T10:21:25.801Z,99846.09
2019-05-03T10:24:15.400Z,99849.16
2019-05-03T10:27:05.776Z,99849.72
2019-05-03T10:30:09.540Z,99848.93
2019-05-03T10:32:51.941Z,99847.57
2019-05-03T10:35:41.963Z,99847.03
2019-05-03T10:38:32.038Z,99846.75
2019-05-03T10:41:22.146Z,99844.84
2019-05-03T10:44:11.834Z,99844.30
2019-05-03T10:47:02.015Z,99848.06
2019-05-03T10:49:52.113Z,99842.97
2019-05-03T10:52:47.637Z,99838.56
2019-05-03T10:55:37.381Z,99839.12
2019-05-03T10:58:27.050Z,99844.66
2019-05-03T11:01:18.444Z,99845.86
2019-05-03T11:04:08.572Z,99845.09
2019-05-03T11:06:58.395Z,99851.12
2019-05-03T11:09:52.379Z,99851.64
2019-05-03T11:12:40.553Z,99848.09
2019-05-03T11:15:30.855Z,99844.30
2019-05-03T11:18:20.796Z,99840.22
2019-05-03T11:21:10.307Z,99839.39
2019-05-03T11:24:00.162Z,99830.10
2019-05-03T11:26:52.076Z,99833.61
2019-05-03T11:29:41.937Z,99825.95
2019-05-03T11:32:44.760Z,99824.27
2019-05-03T11:36:04.318Z,99824.13
2019-05-03T11:38:55.842Z,99823.77
2019-05-03T11:41:48.971Z,99835.55
2019-05-03T11:44:41.025Z,99832.92
2019-05-03T11:47:30.864Z,99823.87
2019-05-03T11:50:20.915Z,99825.16
2019-05-03T11:53:10.359Z,99835.12
2019-05-03T11:56:00.457Z,99830.88
2019-05-03T11:58:50.597Z,99838.81
2019-05-03T12:01:51.711Z,99838.28
2019-05-03T12:04:40.831Z,99830.11
2019-05-03T12:07:39.896Z,99826.51
2019-05-03T12:10:36.512Z,99821.05
2019-05-03T12:13:22.160Z,99818.90
2019-05-03T12:16:20.627Z,99824.65
2019-05-03T12:19:16.512Z,99825.20
2019-05-03T12:21:57.623Z,99831.47
2019-05-03T12:24:48.586Z,99828.50
2019-05-03T12:27:38.883Z,99831.23
2019-05-03T12:30:28.883Z,99834.73
2019-05-03T12:33:18.838Z,99830.69
2019-05-03T12:36:09.050Z,99830.69
2019-05-03T12:38:58.710Z,99833.67
2019-05-03T12:41:48.289Z,99830.69
2019-05-03T12:44:38.263Z,99821.95
2019-05-03T12:47:27.977Z,99829.58
2019-05-03T12:50:18.204Z,99820.05
2019-05-03T12:53:08.243Z,99818.69
2019-05-03T12:55:58.418Z,99829.28
2019-05-03T12:59:02.781Z,99829.53
2019-05-03T13:02:07.574Z,99822.46
2019-05-03T13:04:57.299Z,99817.54
2019-05-03T13:08:01.941Z,99822.41
2019-05-03T13:10:51.847Z,99815.06
2019-05-03T13:13:42.035Z,99809.63
2019-05-03T13:16:32.142Z,99813.76
2019-05-03T13:19:22.242Z,99806.12
2019-05-03T13:22:12.111Z,99804.99
2019-05-03T13:25:02.283Z,99802.77
2019-05-03T13:27:54.659Z,99795.90
2019-05-03T13:30:45.254Z,99796.18
2019-05-03T13:33:35.758Z,99798.62
2019-05-03T13:36:25.732Z,99795.97
2019-05-03T13:39:16.008Z,99798.19
2019-05-03T13:42:06.295Z,99797.95
2019-05-03T13:44:56.624Z,99798.79
2019-05-03T13:47:46.828Z,99794.98
2019-05-03T13:50:36.901Z,99800.42
2019-05-03T13:53:27.146Z,99790.31
2019-05-03T13:56:17.461Z,99788.66
2019-05-03T13:59:18.552Z,99796.28
2019-05-03T14:02:12.448Z,99793.53
2019-05-03T14:04:52.954Z,99788.31
2019-05-03T14:07:44.706Z,99779.28
2019-05-03T14:10:35.960Z,99769.12
2019-05-03T14:13:25.715Z,99778.65
2019-05-03T14:16:16.118Z,99771.28
2019-05-03T14:19:14.572Z,99773.45
2019-05-03T14:22:07.676Z,99774.84
2019-05-03T14:24:57.798Z,99774.06
2019-05-03T14:27:47.815Z,99777.34
2019-05-03T14:30:37.582Z,99780.95
2019-05-03T14:33:28.411Z,99778.28
2019-05-03T14:36:18.606Z,99777.80
2019-05-03T14:39:10.542Z,99390.18
2019-05-03T14:41:59.950Z,99776.45
2019-05-03T14:44:49.755Z,99775.67
2019-05-03T14:47:39.236Z,99772.41
2019-05-03T14:50:29.194Z,99775.14
2019-05-03T14:53:18.577Z,99768.88
2019-05-03T14:56:18.501Z,99767.48
2019-05-03T14:59:45.795Z,99768.84
2019-05-03T15:02:58.059Z,99769.41
2019-05-03T15:05:47.898Z,99765.33
2019-05-03T15:08:37.777Z,99761.75
2019-05-03T15:11:28.108Z,99763.13
2019-05-03T15:14:17.944Z,99759.04
2019-05-03T15:17:08.064Z,99757.92
2019-05-03T15:19:58.355Z,99749.45
2019-05-03T15:22:48.428Z,99745.89
2019-05-03T15:25:38.112Z,99741.28
2019-05-03T15:28:29.528Z,99743.22
2019-05-03T15:31:18.639Z,99733.68
2019-05-03T15:34:08.721Z,99727.41
2019-05-03T15:36:58.686Z,99723.86
2019-05-03T15:39:48.291Z,99730.67
2019-05-03T15:42:40.405Z,99733.92
2019-05-03T15:45:40.718Z,99729.83
2019-05-03T15:48:35.133Z,99740.19
2019-05-03T15:51:25.132Z,99748.43
2019-05-03T15:54:15.428Z,99750.63
2019-05-03T15:57:05.322Z,99748.16
2019-05-03T15:59:55.569Z,99752.55
2019-05-03T16:02:45.692Z,99754.45
2019-05-03T16:05:35.745Z,99751.75
2019-05-03T16:08:26.965Z,99765.36
2019-05-03T16:11:17.133Z,99751.75
2019-05-03T16:14:07.424Z,99752.01
2019-05-03T16:16:57.511Z,99747.92
2019-05-03T16:19:47.714Z,99748.20
2019-05-03T16:22:38.253Z,99741.94
2019-05-03T16:25:28.178Z,99747.92
2019-05-03T16:28:27.410Z,99746.56
2019-05-03T16:31:20.196Z,99737.60
2019-05-03T16:34:09.544Z,99744.12
2019-05-03T16:37:00.513Z,99743.58
2019-05-03T16:39:50.413Z,99735.41
2019-05-03T16:42:40.653Z,99743.86
2019-05-03T16:45:30.704Z,99744.96
2019-05-03T16:48:20.805Z,99738.95
2019-05-03T16:51:10.992Z,99741.95
2019-05-03T16:54:01.328Z,99737.86
2019-05-03T16:56:51.317Z,99744.68
2019-05-03T16:59:41.423Z,99743.56
2019-05-03T17:02:31.256Z,99743.58
2019-05-03T17:05:46.034Z,99750.07
2019-05-03T17:08:56.785Z,99747.08
2019-05-03T17:11:58.428Z,99741.33
2019-05-03T17:14:54.359Z,99744.31
2019-05-03T17:17:45.242Z,99745.12
2019-05-03T17:20:35.077Z,99743.75
2019-05-03T17:23:24.649Z,99736.13
2019-05-03T17:26:14.966Z,99745.09
2019-05-03T17:29:05.783Z,99743.19
2019-05-03T17:31:55.825Z,99743.72
2019-05-03T17:34:45.471Z,99739.91
2019-05-03T17:37:36.516Z,99738.50
2019-05-03T17:40:35.131Z,99736.88
2019-05-03T17:43:28.882Z,99730.31
2019-05-03T17:46:18.715Z,99730.02
2019-05-03T17:49:08.950Z,99730.02
2019-05-03T17:52:20.303Z,99730.01
2019-05-03T17:55:28.887Z,99728.07
2019-05-03T17:58:37.523Z,99729.98
2019-05-03T18:01:45.670Z,99737.02
2019-05-03T18:05:09.757Z,99736.20
2019-05-03T18:08:17.843Z,99734.30
2019-05-03T18:11:14.780Z,99739.70
2019-05-03T18:14:05.566Z,99738.86
2019-05-03T18:16:55.831Z,99739.66
2019-05-03T18:19:47.857Z,99749.70
2019-05-03T18:22:37.842Z,99752.67
2019-05-03T18:25:27.644Z,99752.11
2019-05-03T18:28:18.108Z,99751.00
2019-05-03T18:31:08.837Z,99752.05
2019-05-03T18:33:58.565Z,99753.15
2019-05-03T18:36:48.947Z,99752.02
2019-05-03T18:39:38.884Z,99755.27
2019-05-03T18:42:35.252Z,99758.77
2019-05-03T18:45:36.866Z,99751.38
2019-05-03T18:48:26.830Z,99754.88
2019-05-03T18:51:16.649Z,99754.86
2019-05-03T18:54:07.306Z,99762.66
2019-05-03T18:56:58.027Z,99764.22
2019-05-03T18:59:48.095Z,99767.98
2019-05-03T19:02:37.731Z,99795.87
2019-05-03T19:05:28.645Z,99776.57
2019-05-03T19:08:35.110Z,99771.39
2019-05-03T19:11:46.729Z,99775.44
2019-05-03T19:14:36.336Z,99775.67
2019-05-03T19:17:44.309Z,99773.18
2019-05-03T19:20:35.257Z,99768.00
2019-05-03T19:23:25.049Z,99775.22
2019-05-03T19:26:14.609Z,99771.34
2019-05-03T19:29:04.718Z,99766.19
2019-05-03T19:31:55.303Z,99765.33
2019-05-03T19:34:51.044Z,99765.03
2019-05-03T19:37:37.029Z,99756.55
2019-05-03T19:40:27.706Z,99757.58
2019-05-03T19:43:17.867Z,99755.91
2019-05-03T19:46:07.646Z,99762.58
2019-05-03T19:48:58.850Z,99760.63
2019-05-03T19:51:48.489Z,99757.06
2019-05-03T19:54:37.678Z,99757.77
2019-05-03T19:57:32.450Z,99750.92
2019-05-03T20:00:25.552Z,99750.03
2019-05-03T20:03:19.703Z,99754.32
2019-05-03T20:06:31.584Z,99757.22
2019-05-03T20:09:24.434Z,99752.27
2019-05-03T20:12:15.220Z,99748.36
2019-05-03T20:15:06.833Z,99743.66
2019-05-03T20:18:00.187Z,99746.86
2019-05-03T20:20:48.738Z,99742.53
2019-05-03T20:23:38.900Z,99740.88
2019-05-03T20:26:28.720Z,99745.50
2019-05-03T20:29:18.415Z,99743.88
2019-05-03T20:32:08.199Z,99736.33
2019-05-03T20:35:10.557Z,99741.21
2019-05-03T20:37:49.507Z,99742.03
2019-05-03T20:40:39.541Z,99743.66
2019-05-03T20:43:39.038Z,99746.10
2019-05-03T20:46:46.890Z,99743.66
2019-05-03T20:49:36.829Z,99739.59
2019-05-03T20:52:26.797Z,99737.98
2019-05-03T20:55:16.680Z,99730.12
2019-05-03T20:58:08.391Z,99734.52
2019-05-03T21:00:57.715Z,99729.11
2019-05-03T21:03:47.848Z,99732.68
2019-05-03T21:06:38.134Z,99731.89
2019-05-03T21:09:27.957Z,99729.19
2019-05-03T21:12:17.379Z,99730.83
2019-05-03T21:15:10.214Z,99726.77
2019-05-03T21:18:16.905Z,99727.60
2019-05-03T21:21:11.726Z,99730.30
2019-05-03T21:24:07.177Z,99717.83
2019-05-03T21:26:57.484Z,99721.36
2019-05-03T21:29:55.119Z,99721.06
2019-05-03T21:32:45.012Z,99713.73
2019-05-03T21:35:41.441Z,99711.85
2019-05-03T21:38:26.762Z,99716.17
2019-05-03T21:41:16.752Z,99711.55
2019-05-03T21:44:06.817Z,99719.37
2019-05-03T21:46:56.853Z,99713.63
2019-05-03T21:49:46.988Z,99718.77
2019-05-03T21:52:37.018Z,99711.15
2019-05-03T21:55:26.898Z,99711.64
2019-05-03T21:58:16.793Z,99716.75
2019-05-03T22:01:09.173Z,99715.58
2019-05-03T22:03:58.639Z,99714.19
2019-05-03T22:06:48.875Z,99710.63
2019-05-03T22:09:39.114Z,99710.31
2019-05-03T22:12:28.803Z,99709.75
2019-05-03T22:15:42.980Z,99714.59
2019-05-03T22:18:34.961Z,99719.70
2019-05-03T22:21:30.206Z,99706.89
2019-05-03T22:24:32.237Z,99702.27
2019-05-03T22:27:24.515Z,99708.46
2019-05-03T22:30:14.586Z,99708.91
2019-05-03T22:33:05.246Z,99706.72
2019-05-03T22:36:07.866Z,99703.42
2019-05-03T22:38:47.340Z,99700.70
2019-05-03T22:41:36.962Z,99708.47
2019-05-03T22:44:26.807Z,99702.76
2019-05-03T22:47:16.711Z,99695.45
2019-05-03T22:50:06.310Z,99692.52
2019-05-03T22:52:56.032Z,99688.45
2019-05-03T22:55:46.103Z,99690.91
2019-05-03T22:58:36.229Z,99685.50
2019-05-03T23:01:26.211Z,99683.05
2019-05-03T23:04:16.160Z,99680.58
2019-05-03T23:07:06.206Z,99680.58
2019-05-03T23:09:56.224Z,99674.60
2019-05-03T23:12:46.420Z,99663.78
2019-05-03T23:15:36.312Z,99667.06
2019-05-03T23:18:26.768Z,99660.86
2019-05-03T23:21:20.875Z,99654.09
2019-05-03T23:24:11.138Z,99649.22
2019-05-03T23:27:00.821Z,99648.17
2019-05-03T23:29:50.777Z,99644.94
2019-05-03T23:32:40.816Z,99640.40
2019-05-03T23:35:30.614Z,99636.09
2019-05-03T23:38:20.660Z,99640.97
2019-05-03T23:41:11.436Z,99635.22
2019-05-03T23:44:01.250Z,99627.94
2019-05-03T23:47:14.582Z,99620.34
2019-05-03T23:50:06.468Z,99620.05
2019-05-03T23:52:56.366Z,99625.41
2019-05-03T23:55:50.411Z,99624.89
2019-05-03T23:58:40.148Z,99616.81
